sensor_id;sensor_type;location;lat;lon;timestamp;temperature;humidity
19999;DHT22;10160;50.926;4.374;2023-04-03T00:01:13;5.10;99.90
19999;DHT22;10160;50.926;4.374;2023-04-03T00:03:39;5.10;99.90
19999;DHT22;10160;50.926;4.374;2023-04-03T00:06:04;5.10;99.90
19999;DHT22;10160;50.926;4.374;2023-04-03T00:08:32;5.10;99.90
19999;DHT22;10160;50.926;4.374;2023-04-03T00:10:58;5.10;99.90
19999;DHT22;10160;50.926;4.374;2023-04-03T00:13:24;5.00;99.90
19999;DHT22;10160;50.926;4.374;2023-04-03T00:15:51;5.00;99.90
19999;DHT22;10160;50.926;4.374;2023-04-03T00:18:17;5.10;99.90
19999;DHT22;10160;50.926;4.374;2023-04-03T00:20:43;5.10;99.90
19999;DHT22;10160;50.926;4.374;2023-04-03T00:23:09;5.20;99.90
19999;DHT22;10160;50.926;4.374;2023-04-03T00:25:35;5.20;99.90
19999;DHT22;10160;50.926;4.374;2023-04-03T00:28:02;5.20;99.90
19999;DHT22;10160;50.926;4.374;2023-04-03T00:30:27;5.20;99.90
19999;DHT22;10160;50.926;4.374;2023-04-03T00:32:53;5.10;99.90
19999;DHT22;10160;50.926;4.374;2023-04-03T00:35:20;5.10;99.90
19999;DHT22;10160;50.926;4.374;2023-04-03T00:37:46;5.10;99.90
19999;DHT22;10160;50.926;4.374;2023-04-03T00:40:13;5.20;99.90
19999;DHT22;10160;50.926;4.374;2023-04-03T00:42:43;5.10;99.90
19999;DHT22;10160;50.926;4.374;2023-04-03T00:45:43;5.20;99.90
19999;DHT22;10160;50.926;4.374;2023-04-03T00:48:17;5.20;99.90
19999;DHT22;10160;50.926;4.374;2023-04-03T00:50:44;5.10;99.90
19999;DHT22;10160;50.926;4.374;2023-04-03T00:53:23;5.10;99.90
19999;DHT22;10160;50.926;4.374;2023-04-03T00:55:51;5.10;99.90
19999;DHT22;10160;50.926;4.374;2023-04-03T00:58:20;5.10;99.90
19999;DHT22;10160;50.926;4.374;2023-04-03T01:00:52;5.10;99.90
19999;DHT22;10160;50.926;4.374;2023-04-03T01:03:21;5.10;99.90
19999;DHT22;10160;50.926;4.374;2023-04-03T01:05:47;5.10;99.90
19999;DHT22;10160;50.926;4.374;2023-04-03T01:08:13;5.10;99.90
19999;DHT22;10160;50.926;4.374;2023-04-03T01:10:39;5.20;99.90
19999;DHT22;10160;50.926;4.374;2023-04-03T01:13:28;5.20;99.90
19999;DHT22;10160;50.926;4.374;2023-04-03T01:15:54;5.20;99.90
19999;DHT22;10160;50.926;4.374;2023-04-03T01:18:21;5.20;99.90
19999;DHT22;10160;50.926;4.374;2023-04-03T01:26:15;5.00;99.90
19999;DHT22;10160;50.926;4.374;2023-04-03T01:28:41;5.00;99.90
19999;DHT22;10160;50.926;4.374;2023-04-03T01:34:10;5.00;99.90
19999;DHT22;10160;50.926;4.374;2023-04-03T01:36:36;4.90;99.90
19999;DHT22;10160;50.926;4.374;2023-04-03T01:39:02;4.80;99.90
19999;DHT22;10160;50.926;4.374;2023-04-03T01:41:28;4.70;99.90
19999;DHT22;10160;50.926;4.374;2023-04-03T01:43:54;4.70;99.90
19999;DHT22;10160;50.926;4.374;2023-04-03T01:46:20;4.70;99.90
19999;DHT22;10160;50.926;4.374;2023-04-03T01:48:46;4.80;99.90
19999;DHT22;10160;50.926;4.374;2023-04-03T01:51:12;4.90;99.90
19999;DHT22;10160;50.926;4.374;2023-04-03T01:53:37;5.00;99.90
19999;DHT22;10160;50.926;4.374;2023-04-03T01:56:03;5.00;99.90
19999;DHT22;10160;50.926;4.374;2023-04-03T01:58:29;4.90;99.90
19999;DHT22;10160;50.926;4.374;2023-04-03T02:00:55;4.90;99.90
19999;DHT22;10160;50.926;4.374;2023-04-03T02:03:21;4.90;99.90
19999;DHT22;10160;50.926;4.374;2023-04-03T02:05:47;4.90;99.90
19999;DHT22;10160;50.926;4.374;2023-04-03T02:08:12;4.80;99.90
19999;DHT22;10160;50.926;4.374;2023-04-03T02:10:39;4.70;99.90
19999;DHT22;10160;50.926;4.374;2023-04-03T02:13:05;4.90;99.90
19999;DHT22;10160;50.926;4.374;2023-04-03T02:15:31;4.80;99.90
19999;DHT22;10160;50.926;4.374;2023-04-03T02:17:56;4.80;99.90
19999;DHT22;10160;50.926;4.374;2023-04-03T02:20:22;4.80;99.90
19999;DHT22;10160;50.926;4.374;2023-04-03T02:22:48;4.90;99.90
19999;DHT22;10160;50.926;4.374;2023-04-03T02:25:14;4.90;99.90
19999;DHT22;10160;50.926;4.374;2023-04-03T02:27:40;4.80;99.90
19999;DHT22;10160;50.926;4.374;2023-04-03T02:30:06;4.80;99.90
19999;DHT22;10160;50.926;4.374;2023-04-03T02:32:32;4.70;99.90
19999;DHT22;10160;50.926;4.374;2023-04-03T02:34:58;4.70;99.90
19999;DHT22;10160;50.926;4.374;2023-04-03T02:37:24;4.60;99.90
19999;DHT22;10160;50.926;4.374;2023-04-03T02:39:49;4.60;99.90
19999;DHT22;10160;50.926;4.374;2023-04-03T02:42:15;4.60;99.90
19999;DHT22;10160;50.926;4.374;2023-04-03T02:44:41;4.60;99.90
19999;DHT22;10160;50.926;4.374;2023-04-03T02:47:07;4.60;99.90
19999;DHT22;10160;50.926;4.374;2023-04-03T02:49:34;4.60;99.90
19999;DHT22;10160;50.926;4.374;2023-04-03T02:51:59;4.50;99.90
19999;DHT22;10160;50.926;4.374;2023-04-03T02:54:25;4.50;99.90
19999;DHT22;10160;50.926;4.374;2023-04-03T02:56:54;4.50;99.90
19999;DHT22;10160;50.926;4.374;2023-04-03T02:59:19;4.50;99.90
19999;DHT22;10160;50.926;4.374;2023-04-03T03:01:46;4.40;99.90
19999;DHT22;10160;50.926;4.374;2023-04-03T03:04:11;4.40;99.90
19999;DHT22;10160;50.926;4.374;2023-04-03T03:06:37;4.50;99.90
19999;DHT22;10160;50.926;4.374;2023-04-03T03:09:03;4.40;99.90
19999;DHT22;10160;50.926;4.374;2023-04-03T03:11:29;4.40;99.90
19999;DHT22;10160;50.926;4.374;2023-04-03T03:13:55;4.40;99.90
19999;DHT22;10160;50.926;4.374;2023-04-03T03:16:21;4.40;99.90
19999;DHT22;10160;50.926;4.374;2023-04-03T03:18:47;4.40;99.90
19999;DHT22;10160;50.926;4.374;2023-04-03T03:21:13;4.30;99.90
19999;DHT22;10160;50.926;4.374;2023-04-03T03:23:39;4.30;99.90
19999;DHT22;10160;50.926;4.374;2023-04-03T03:26:07;4.40;99.90
19999;DHT22;10160;50.926;4.374;2023-04-03T03:28:34;4.20;99.90
19999;DHT22;10160;50.926;4.374;2023-04-03T03:31:01;4.30;99.90
19999;DHT22;10160;50.926;4.374;2023-04-03T03:33:27;4.20;99.90
19999;DHT22;10160;50.926;4.374;2023-04-03T03:35:53;4.20;99.90
19999;DHT22;10160;50.926;4.374;2023-04-03T03:38:20;4.20;99.90
19999;DHT22;10160;50.926;4.374;2023-04-03T03:40:47;4.10;99.90
19999;DHT22;10160;50.926;4.374;2023-04-03T03:43:14;4.10;99.90
19999;DHT22;10160;50.926;4.374;2023-04-03T03:45:40;4.10;99.90
19999;DHT22;10160;50.926;4.374;2023-04-03T03:48:06;4.10;99.90
19999;DHT22;10160;50.926;4.374;2023-04-03T03:50:32;4.10;99.90
19999;DHT22;10160;50.926;4.374;2023-04-03T03:52:57;4.10;99.90
19999;DHT22;10160;50.926;4.374;2023-04-03T03:55:23;4.00;99.90
19999;DHT22;10160;50.926;4.374;2023-04-03T03:57:49;4.00;99.90
19999;DHT22;10160;50.926;4.374;2023-04-03T04:00:15;3.90;99.90
19999;DHT22;10160;50.926;4.374;2023-04-03T04:02:41;3.90;99.90
19999;DHT22;10160;50.926;4.374;2023-04-03T04:05:07;3.90;99.90
19999;DHT22;10160;50.926;4.374;2023-04-03T04:07:32;3.90;99.90
19999;DHT22;10160;50.926;4.374;2023-04-03T04:09:58;4.00;99.90
19999;DHT22;10160;50.926;4.374;2023-04-03T04:12:24;3.90;99.90
19999;DHT22;10160;50.926;4.374;2023-04-03T04:14:50;3.90;99.90
19999;DHT22;10160;50.926;4.374;2023-04-03T04:17:15;3.80;99.90
19999;DHT22;10160;50.926;4.374;2023-04-03T04:19:41;3.80;99.90
19999;DHT22;10160;50.926;4.374;2023-04-03T04:22:07;3.80;99.90
19999;DHT22;10160;50.926;4.374;2023-04-03T04:24:32;3.90;99.90
19999;DHT22;10160;50.926;4.374;2023-04-03T04:26:58;3.70;99.90
19999;DHT22;10160;50.926;4.374;2023-04-03T04:29:24;3.80;99.90
19999;DHT22;10160;50.926;4.374;2023-04-03T04:31:50;3.70;99.90
19999;DHT22;10160;50.926;4.374;2023-04-03T04:34:15;3.70;99.90
19999;DHT22;10160;50.926;4.374;2023-04-03T04:36:41;3.60;99.90
19999;DHT22;10160;50.926;4.374;2023-04-03T04:39:07;3.60;99.90
19999;DHT22;10160;50.926;4.374;2023-04-03T04:41:33;3.60;99.90
19999;DHT22;10160;50.926;4.374;2023-04-03T04:44:00;3.60;99.90
19999;DHT22;10160;50.926;4.374;2023-04-03T04:46:26;3.60;99.90
19999;DHT22;10160;50.926;4.374;2023-04-03T04:48:52;3.60;99.90
19999;DHT22;10160;50.926;4.374;2023-04-03T04:51:18;3.70;99.90
19999;DHT22;10160;50.926;4.374;2023-04-03T04:53:43;3.60;99.90
19999;DHT22;10160;50.926;4.374;2023-04-03T04:56:09;3.50;99.90
19999;DHT22;10160;50.926;4.374;2023-04-03T04:58:35;3.50;99.90
19999;DHT22;10160;50.926;4.374;2023-04-03T05:01:09;3.50;99.90
19999;DHT22;10160;50.926;4.374;2023-04-03T05:03:35;3.40;99.90
19999;DHT22;10160;50.926;4.374;2023-04-03T05:06:01;3.50;99.90
19999;DHT22;10160;50.926;4.374;2023-04-03T05:08:27;3.50;99.90
19999;DHT22;10160;50.926;4.374;2023-04-03T05:10:53;3.50;99.90
19999;DHT22;10160;50.926;4.374;2023-04-03T05:13:19;3.50;99.90
19999;DHT22;10160;50.926;4.374;2023-04-03T05:15:46;3.50;99.90
19999;DHT22;10160;50.926;4.374;2023-04-03T05:18:12;3.40;99.90
19999;DHT22;10160;50.926;4.374;2023-04-03T05:20:37;3.40;99.90
19999;DHT22;10160;50.926;4.374;2023-04-03T05:23:03;3.40;99.90
19999;DHT22;10160;50.926;4.374;2023-04-03T05:25:29;3.30;99.90
19999;DHT22;10160;50.926;4.374;2023-04-03T05:27:55;3.30;99.90
19999;DHT22;10160;50.926;4.374;2023-04-03T05:30:21;3.40;99.90
19999;DHT22;10160;50.926;4.374;2023-04-03T05:32:47;3.40;99.90
19999;DHT22;10160;50.926;4.374;2023-04-03T05:35:12;3.40;99.90
19999;DHT22;10160;50.926;4.374;2023-04-03T05:37:38;3.40;99.90
19999;DHT22;10160;50.926;4.374;2023-04-03T05:40:05;3.40;99.90
19999;DHT22;10160;50.926;4.374;2023-04-03T05:42:31;3.40;99.90
19999;DHT22;10160;50.926;4.374;2023-04-03T05:44:57;3.40;99.90
19999;DHT22;10160;50.926;4.374;2023-04-03T05:47:23;3.30;99.90
19999;DHT22;10160;50.926;4.374;2023-04-03T05:49:48;3.40;99.90
19999;DHT22;10160;50.926;4.374;2023-04-03T05:52:28;3.40;99.90
19999;DHT22;10160;50.926;4.374;2023-04-03T05:54:54;3.40;99.90
19999;DHT22;10160;50.926;4.374;2023-04-03T05:57:20;3.50;99.90
19999;DHT22;10160;50.926;4.374;2023-04-03T05:59:46;3.50;99.90
19999;DHT22;10160;50.926;4.374;2023-04-03T06:02:14;3.50;99.90
19999;DHT22;10160;50.926;4.374;2023-04-03T06:04:41;3.50;99.90
19999;DHT22;10160;50.926;4.374;2023-04-03T06:07:13;3.60;99.90
19999;DHT22;10160;50.926;4.374;2023-04-03T06:09:39;3.60;99.90
19999;DHT22;10160;50.926;4.374;2023-04-03T06:12:05;3.80;99.90
19999;DHT22;10160;50.926;4.374;2023-04-03T06:14:31;3.80;99.90
19999;DHT22;10160;50.926;4.374;2023-04-03T06:16:57;3.90;99.90
19999;DHT22;10160;50.926;4.374;2023-04-03T06:19:23;3.90;99.90
19999;DHT22;10160;50.926;4.374;2023-04-03T06:21:49;4.00;99.90
19999;DHT22;10160;50.926;4.374;2023-04-03T06:24:16;3.90;99.90
19999;DHT22;10160;50.926;4.374;2023-04-03T06:26:42;4.00;99.90
19999;DHT22;10160;50.926;4.374;2023-04-03T06:29:08;4.10;99.90
19999;DHT22;10160;50.926;4.374;2023-04-03T06:31:34;4.20;99.90
19999;DHT22;10160;50.926;4.374;2023-04-03T06:34:02;4.30;99.90
19999;DHT22;10160;50.926;4.374;2023-04-03T06:36:28;4.40;99.90
19999;DHT22;10160;50.926;4.374;2023-04-03T06:38:54;4.50;99.90
19999;DHT22;10160;50.926;4.374;2023-04-03T06:41:20;4.80;99.90
19999;DHT22;10160;50.926;4.374;2023-04-03T06:43:46;5.10;99.90
19999;DHT22;10160;50.926;4.374;2023-04-03T06:46:17;5.50;99.90
19999;DHT22;10160;50.926;4.374;2023-04-03T06:48:44;5.90;99.90
19999;DHT22;10160;50.926;4.374;2023-04-03T06:51:30;6.20;99.90
19999;DHT22;10160;50.926;4.374;2023-04-03T06:53:58;6.50;99.90
19999;DHT22;10160;50.926;4.374;2023-04-03T06:56:25;6.60;99.90
19999;DHT22;10160;50.926;4.374;2023-04-03T06:58:52;6.80;99.90
19999;DHT22;10160;50.926;4.374;2023-04-03T07:01:20;6.90;99.90
19999;DHT22;10160;50.926;4.374;2023-04-03T07:03:46;7.00;99.90
19999;DHT22;10160;50.926;4.374;2023-04-03T07:06:14;7.30;99.90
19999;DHT22;10160;50.926;4.374;2023-04-03T07:08:41;7.50;99.90
19999;DHT22;10160;50.926;4.374;2023-04-03T07:11:07;7.80;99.90
19999;DHT22;10160;50.926;4.374;2023-04-03T07:13:34;7.90;99.90
19999;DHT22;10160;50.926;4.374;2023-04-03T07:16:00;7.70;99.90
19999;DHT22;10160;50.926;4.374;2023-04-03T07:18:26;7.70;99.90
19999;DHT22;10160;50.926;4.374;2023-04-03T07:20:51;7.60;99.90
19999;DHT22;10160;50.926;4.374;2023-04-03T07:23:18;7.90;99.90
19999;DHT22;10160;50.926;4.374;2023-04-03T07:25:45;7.60;99.90
19999;DHT22;10160;50.926;4.374;2023-04-03T07:28:11;7.80;99.90
19999;DHT22;10160;50.926;4.374;2023-04-03T07:30:44;7.80;99.90
19999;DHT22;10160;50.926;4.374;2023-04-03T07:33:10;7.60;99.90
19999;DHT22;10160;50.926;4.374;2023-04-03T07:35:37;7.80;99.90
19999;DHT22;10160;50.926;4.374;2023-04-03T07:38:02;7.50;99.90
19999;DHT22;10160;50.926;4.374;2023-04-03T07:40:28;7.40;99.90
19999;DHT22;10160;50.926;4.374;2023-04-03T07:42:54;7.30;99.90
19999;DHT22;10160;50.926;4.374;2023-04-03T07:45:22;6.80;99.90
19999;DHT22;10160;50.926;4.374;2023-04-03T07:47:48;6.70;99.90
19999;DHT22;10160;50.926;4.374;2023-04-03T07:50:14;6.80;99.90
19999;DHT22;10160;50.926;4.374;2023-04-03T07:52:40;6.80;99.90
19999;DHT22;10160;50.926;4.374;2023-04-03T07:55:06;6.40;99.90
19999;DHT22;10160;50.926;4.374;2023-04-03T07:57:32;6.10;99.90
19999;DHT22;10160;50.926;4.374;2023-04-03T07:59:58;6.20;99.90
19999;DHT22;10160;50.926;4.374;2023-04-03T08:02:23;5.90;99.90
19999;DHT22;10160;50.926;4.374;2023-04-03T08:04:49;6.10;99.90
19999;DHT22;10160;50.926;4.374;2023-04-03T08:07:15;6.40;99.90
19999;DHT22;10160;50.926;4.374;2023-04-03T08:09:41;6.60;99.90
19999;DHT22;10160;50.926;4.374;2023-04-03T08:12:06;6.60;99.90
19999;DHT22;10160;50.926;4.374;2023-04-03T08:14:32;6.70;99.90
19999;DHT22;10160;50.926;4.374;2023-04-03T08:17:00;6.50;99.90
19999;DHT22;10160;50.926;4.374;2023-04-03T08:19:26;6.60;99.90
19999;DHT22;10160;50.926;4.374;2023-04-03T08:21:53;6.90;99.90
19999;DHT22;10160;50.926;4.374;2023-04-03T08:24:19;7.10;99.90
19999;DHT22;10160;50.926;4.374;2023-04-03T08:26:45;7.40;99.90
19999;DHT22;10160;50.926;4.374;2023-04-03T08:29:10;7.30;99.90
19999;DHT22;10160;50.926;4.374;2023-04-03T08:31:37;7.50;99.90
19999;DHT22;10160;50.926;4.374;2023-04-03T08:34:03;7.30;99.90
19999;DHT22;10160;50.926;4.374;2023-04-03T08:36:29;7.20;99.90
19999;DHT22;10160;50.926;4.374;2023-04-03T08:38:56;7.30;99.90
19999;DHT22;10160;50.926;4.374;2023-04-03T08:41:31;7.50;99.90
19999;DHT22;10160;50.926;4.374;2023-04-03T08:44:18;7.70;99.90
19999;DHT22;10160;50.926;4.374;2023-04-03T08:49:49;8.50;99.90
19999;DHT22;10160;50.926;4.374;2023-04-03T08:52:36;8.30;99.90
19999;DHT22;10160;50.926;4.374;2023-04-03T08:55:25;8.70;99.90
19999;DHT22;10160;50.926;4.374;2023-04-03T08:58:22;9.10;99.90
19999;DHT22;10160;50.926;4.374;2023-04-03T09:01:01;9.20;99.90
19999;DHT22;10160;50.926;4.374;2023-04-03T09:03:31;9.50;99.90
19999;DHT22;10160;50.926;4.374;2023-04-03T09:06:03;9.90;99.90
19999;DHT22;10160;50.926;4.374;2023-04-03T09:08:40;10.50;99.90
19999;DHT22;10160;50.926;4.374;2023-04-03T09:17:16;10.50;99.90
19999;DHT22;10160;50.926;4.374;2023-04-03T09:19:56;10.10;99.90
19999;DHT22;10160;50.926;4.374;2023-04-03T09:22:25;10.30;99.90
19999;DHT22;10160;50.926;4.374;2023-04-03T09:27:39;10.10;99.90
19999;DHT22;10160;50.926;4.374;2023-04-03T09:30:08;10.20;99.90
19999;DHT22;10160;50.926;4.374;2023-04-03T09:32:35;10.50;99.90
19999;DHT22;10160;50.926;4.374;2023-04-03T09:35:06;10.40;99.90
19999;DHT22;10160;50.926;4.374;2023-04-03T09:37:42;10.60;99.90
19999;DHT22;10160;50.926;4.374;2023-04-03T09:42:58;10.70;99.90
19999;DHT22;10160;50.926;4.374;2023-04-03T09:45:32;10.60;99.90
19999;DHT22;10160;50.926;4.374;2023-04-03T09:50:30;11.20;99.90
19999;DHT22;10160;50.926;4.374;2023-04-03T09:52:56;11.50;99.90
19999;DHT22;10160;50.926;4.374;2023-04-03T09:55:28;11.50;99.90
19999;DHT22;10160;50.926;4.374;2023-04-03T09:58:02;11.60;99.90
19999;DHT22;10160;50.926;4.374;2023-04-03T10:00:35;11.30;99.90
19999;DHT22;10160;50.926;4.374;2023-04-03T10:03:02;12.00;99.90
19999;DHT22;10160;50.926;4.374;2023-04-03T10:10:45;11.70;99.90
19999;DHT22;10160;50.926;4.374;2023-04-03T10:13:18;12.10;99.90
19999;DHT22;10160;50.926;4.374;2023-04-03T10:18:47;12.50;99.90
19999;DHT22;10160;50.926;4.374;2023-04-03T10:36:33;15.20;99.90
19999;DHT22;10160;50.926;4.374;2023-04-03T10:53:44;16.70;99.90
19999;DHT22;10160;50.926;4.374;2023-04-03T10:56:47;16.90;99.90
19999;DHT22;10160;50.926;4.374;2023-04-03T11:01:58;15.80;98.30
19999;DHT22;10160;50.926;4.374;2023-04-03T11:04:28;16.50;98.50
19999;DHT22;10160;50.926;4.374;2023-04-03T11:07:12;15.90;94.70
19999;DHT22;10160;50.926;4.374;2023-04-03T11:09:43;16.30;97.60
19999;DHT22;10160;50.926;4.374;2023-04-03T11:12:42;16.90;95.40
19999;DHT22;10160;50.926;4.374;2023-04-03T11:15:15;16.90;93.10
19999;DHT22;10160;50.926;4.374;2023-04-03T11:17:47;16.40;96.30
19999;DHT22;10160;50.926;4.374;2023-04-03T11:22:58;17.60;98.00
19999;DHT22;10160;50.926;4.374;2023-04-03T11:25:26;17.70;92.10
19999;DHT22;10160;50.926;4.374;2023-04-03T11:27:57;16.50;90.70
19999;DHT22;10160;50.926;4.374;2023-04-03T11:30:30;16.50;94.30
19999;DHT22;10160;50.926;4.374;2023-04-03T11:33:25;17.20;92.40
19999;DHT22;10160;50.926;4.374;2023-04-03T11:35:57;16.20;79.60
19999;DHT22;10160;50.926;4.374;2023-04-03T11:38:27;15.40;92.10
19999;DHT22;10160;50.926;4.374;2023-04-03T11:40:55;14.40;86.30
19999;DHT22;10160;50.926;4.374;2023-04-03T11:43:28;14.00;90.40
19999;DHT22;10160;50.926;4.374;2023-04-03T11:46:00;13.90;94.00
19999;DHT22;10160;50.926;4.374;2023-04-03T11:53:43;14.70;92.10
19999;DHT22;10160;50.926;4.374;2023-04-03T12:01:48;13.80;92.60
19999;DHT22;10160;50.926;4.374;2023-04-03T12:04:16;13.60;94.00
19999;DHT22;10160;50.926;4.374;2023-04-03T12:06:49;14.30;95.00
19999;DHT22;10160;50.926;4.374;2023-04-03T12:12:38;14.50;90.20
19999;DHT22;10160;50.926;4.374;2023-04-03T12:21:07;15.90;92.20
19999;DHT22;10160;50.926;4.374;2023-04-03T12:23:35;16.50;92.20
19999;DHT22;10160;50.926;4.374;2023-04-03T12:26:18;16.80;86.60
19999;DHT22;10160;50.926;4.374;2023-04-03T12:28:45;17.20;87.70
19999;DHT22;10160;50.926;4.374;2023-04-03T12:31:12;16.90;87.60
19999;DHT22;10160;50.926;4.374;2023-04-03T12:34:15;17.20;82.30
19999;DHT22;10160;50.926;4.374;2023-04-03T12:37:01;15.80;83.00
19999;DHT22;10160;50.926;4.374;2023-04-03T12:45:22;14.30;80.70
19999;DHT22;10160;50.926;4.374;2023-04-03T12:47:52;14.60;82.70
19999;DHT22;10160;50.926;4.374;2023-04-03T12:50:31;13.90;82.10
19999;DHT22;10160;50.926;4.374;2023-04-03T12:53:13;14.40;79.30
19999;DHT22;10160;50.926;4.374;2023-04-03T12:55:40;13.80;79.50
19999;DHT22;10160;50.926;4.374;2023-04-03T12:58:26;14.10;90.20
19999;DHT22;10160;50.926;4.374;2023-04-03T13:01:02;15.20;86.30
19999;DHT22;10160;50.926;4.374;2023-04-03T13:03:28;15.00;78.80
19999;DHT22;10160;50.926;4.374;2023-04-03T13:06:00;14.60;74.30
19999;DHT22;10160;50.926;4.374;2023-04-03T13:08:27;14.70;83.00
19999;DHT22;10160;50.926;4.374;2023-04-03T13:11:22;14.30;79.30
19999;DHT22;10160;50.926;4.374;2023-04-03T13:14:03;13.90;81.30
19999;DHT22;10160;50.926;4.374;2023-04-03T13:16:33;13.80;79.20
19999;DHT22;10160;50.926;4.374;2023-04-03T13:18:59;13.90;86.60
19999;DHT22;10160;50.926;4.374;2023-04-03T13:21:28;14.40;83.70
19999;DHT22;10160;50.926;4.374;2023-04-03T13:23:59;14.90;76.30
19999;DHT22;10160;50.926;4.374;2023-04-03T13:26:29;15.30;86.10
19999;DHT22;10160;50.926;4.374;2023-04-03T13:29:01;15.90;80.30
19999;DHT22;10160;50.926;4.374;2023-04-03T13:31:31;16.10;77.40
19999;DHT22;10160;50.926;4.374;2023-04-03T13:34:16;15.90;76.50
19999;DHT22;10160;50.926;4.374;2023-04-03T13:39:28;16.20;73.00
19999;DHT22;10160;50.926;4.374;2023-04-03T13:41:57;16.30;80.10
19999;DHT22;10160;50.926;4.374;2023-04-03T13:44:30;15.90;70.90
19999;DHT22;10160;50.926;4.374;2023-04-03T13:46:59;15.80;79.80
19999;DHT22;10160;50.926;4.374;2023-04-03T13:50:03;15.90;79.80
19999;DHT22;10160;50.926;4.374;2023-04-03T13:55:17;15.50;78.40
19999;DHT22;10160;50.926;4.374;2023-04-03T13:57:59;15.00;78.70
19999;DHT22;10160;50.926;4.374;2023-04-03T14:00:27;15.20;85.70
19999;DHT22;10160;50.926;4.374;2023-04-03T14:02:54;15.30;87.40
19999;DHT22;10160;50.926;4.374;2023-04-03T14:05:22;15.30;85.20
19999;DHT22;10160;50.926;4.374;2023-04-03T14:07:50;15.70;86.10
19999;DHT22;10160;50.926;4.374;2023-04-03T14:10:17;15.80;76.50
19999;DHT22;10160;50.926;4.374;2023-04-03T14:12:43;15.40;80.40
19999;DHT22;10160;50.926;4.374;2023-04-03T14:15:27;14.90;78.50
19999;DHT22;10160;50.926;4.374;2023-04-03T14:17:53;14.90;78.80
19999;DHT22;10160;50.926;4.374;2023-04-03T14:20:23;15.10;79.50
19999;DHT22;10160;50.926;4.374;2023-04-03T14:22:49;15.30;79.20
19999;DHT22;10160;50.926;4.374;2023-04-03T14:25:19;15.40;78.80
19999;DHT22;10160;50.926;4.374;2023-04-03T14:27:47;14.70;67.70
19999;DHT22;10160;50.926;4.374;2023-04-03T14:32:45;14.40;68.90
19999;DHT22;10160;50.926;4.374;2023-04-03T14:35:11;14.10;68.50
19999;DHT22;10160;50.926;4.374;2023-04-03T14:37:37;13.70;74.00
19999;DHT22;10160;50.926;4.374;2023-04-03T14:40:04;13.20;75.40
19999;DHT22;10160;50.926;4.374;2023-04-03T14:42:36;13.80;80.00
19999;DHT22;10160;50.926;4.374;2023-04-03T14:45:05;14.20;77.40
19999;DHT22;10160;50.926;4.374;2023-04-03T14:47:46;14.20;69.50
19999;DHT22;10160;50.926;4.374;2023-04-03T14:50:19;14.40;68.80
19999;DHT22;10160;50.926;4.374;2023-04-03T14:52:50;14.40;67.60
19999;DHT22;10160;50.926;4.374;2023-04-03T14:55:19;14.70;70.20
19999;DHT22;10160;50.926;4.374;2023-04-03T14:57:46;14.60;70.50
19999;DHT22;10160;50.926;4.374;2023-04-03T15:00:15;14.50;65.70
19999;DHT22;10160;50.926;4.374;2023-04-03T15:02:44;14.00;70.00
19999;DHT22;10160;50.926;4.374;2023-04-03T15:05:11;13.70;72.80
19999;DHT22;10160;50.926;4.374;2023-04-03T15:07:43;13.80;72.60
19999;DHT22;10160;50.926;4.374;2023-04-03T15:10:25;13.80;75.40
19999;DHT22;10160;50.926;4.374;2023-04-03T15:12:52;14.10;69.60
19999;DHT22;10160;50.926;4.374;2023-04-03T15:15:19;13.90;72.30
19999;DHT22;10160;50.926;4.374;2023-04-03T15:17:48;13.80;70.20
19999;DHT22;10160;50.926;4.374;2023-04-03T15:20:19;13.90;70.30
19999;DHT22;10160;50.926;4.374;2023-04-03T15:22:45;14.10;71.40
19999;DHT22;10160;50.926;4.374;2023-04-03T15:25:11;14.20;72.00
19999;DHT22;10160;50.926;4.374;2023-04-03T15:27:39;14.30;72.20
19999;DHT22;10160;50.926;4.374;2023-04-03T15:30:07;14.50;71.20
19999;DHT22;10160;50.926;4.374;2023-04-03T15:32:33;14.30;67.20
19999;DHT22;10160;50.926;4.374;2023-04-03T15:35:00;13.50;69.80
19999;DHT22;10160;50.926;4.374;2023-04-03T15:37:26;13.40;71.70
19999;DHT22;10160;50.926;4.374;2023-04-03T15:39:52;13.40;72.10
19999;DHT22;10160;50.926;4.374;2023-04-03T15:42:17;13.30;70.50
19999;DHT22;10160;50.926;4.374;2023-04-03T15:44:43;13.20;73.90
19999;DHT22;10160;50.926;4.374;2023-04-03T15:47:09;12.70;71.20
19999;DHT22;10160;50.926;4.374;2023-04-03T15:49:35;12.40;76.10
19999;DHT22;10160;50.926;4.374;2023-04-03T15:52:02;12.80;78.80
19999;DHT22;10160;50.926;4.374;2023-04-03T15:54:28;12.70;74.40
19999;DHT22;10160;50.926;4.374;2023-04-03T15:56:55;12.70;75.10
19999;DHT22;10160;50.926;4.374;2023-04-03T15:59:21;12.90;74.40
19999;DHT22;10160;50.926;4.374;2023-04-03T16:01:47;13.10;75.60
19999;DHT22;10160;50.926;4.374;2023-04-03T16:04:14;12.80;74.50
19999;DHT22;10160;50.926;4.374;2023-04-03T16:06:40;12.90;77.30
19999;DHT22;10160;50.926;4.374;2023-04-03T16:09:06;12.60;73.50
19999;DHT22;10160;50.926;4.374;2023-04-03T16:11:33;12.20;73.70
19999;DHT22;10160;50.926;4.374;2023-04-03T16:14:00;12.00;78.00
19999;DHT22;10160;50.926;4.374;2023-04-03T16:16:26;12.00;73.80
19999;DHT22;10160;50.926;4.374;2023-04-03T16:18:54;11.80;74.20
19999;DHT22;10160;50.926;4.374;2023-04-03T16:21:20;11.60;74.40
19999;DHT22;10160;50.926;4.374;2023-04-03T16:23:46;11.40;76.50
19999;DHT22;10160;50.926;4.374;2023-04-03T16:26:11;11.50;80.80
19999;DHT22;10160;50.926;4.374;2023-04-03T16:28:37;11.60;76.90
19999;DHT22;10160;50.926;4.374;2023-04-03T16:31:05;11.90;78.10
19999;DHT22;10160;50.926;4.374;2023-04-03T16:33:31;12.10;78.50
19999;DHT22;10160;50.926;4.374;2023-04-03T16:35:57;11.90;76.60
19999;DHT22;10160;50.926;4.374;2023-04-03T16:38:23;11.80;79.10
19999;DHT22;10160;50.926;4.374;2023-04-03T16:40:49;12.00;84.40
19999;DHT22;10160;50.926;4.374;2023-04-03T16:43:15;12.00;79.70
19999;DHT22;10160;50.926;4.374;2023-04-03T16:45:41;12.10;82.00
19999;DHT22;10160;50.926;4.374;2023-04-03T16:48:07;12.20;84.00
19999;DHT22;10160;50.926;4.374;2023-04-03T16:50:33;12.30;81.30
19999;DHT22;10160;50.926;4.374;2023-04-03T16:52:59;12.40;81.90
19999;DHT22;10160;50.926;4.374;2023-04-03T16:55:25;12.20;78.70
19999;DHT22;10160;50.926;4.374;2023-04-03T16:57:50;12.20;79.60
19999;DHT22;10160;50.926;4.374;2023-04-03T17:00:16;12.00;79.70
19999;DHT22;10160;50.926;4.374;2023-04-03T17:02:42;11.90;80.10
19999;DHT22;10160;50.926;4.374;2023-04-03T17:05:08;11.70;81.50
19999;DHT22;10160;50.926;4.374;2023-04-03T17:07:33;11.70;83.00
19999;DHT22;10160;50.926;4.374;2023-04-03T17:09:59;11.20;82.10
19999;DHT22;10160;50.926;4.374;2023-04-03T17:12:25;11.20;85.60
19999;DHT22;10160;50.926;4.374;2023-04-03T17:14:51;11.40;87.60
19999;DHT22;10160;50.926;4.374;2023-04-03T17:17:22;11.60;88.60
19999;DHT22;10160;50.926;4.374;2023-04-03T17:19:49;11.50;87.60
19999;DHT22;10160;50.926;4.374;2023-04-03T17:22:15;11.20;89.60
19999;DHT22;10160;50.926;4.374;2023-04-03T17:24:42;11.00;91.40
19999;DHT22;10160;50.926;4.374;2023-04-03T17:27:09;11.20;91.70
19999;DHT22;10160;50.926;4.374;2023-04-03T17:29:34;11.20;92.00
19999;DHT22;10160;50.926;4.374;2023-04-03T17:32:00;11.30;91.60